Current | Forecast
Updated: 12:00 PM JST on March 29, 2017
Observed at Takamatsu Airport, Japan
Temperature 13°C
Humidity 54%
Dew Point 4°C
Wind NW at 11 km/h
Pressure 1023 hPa (Falling)
Conditions Scattered Clouds
Visibility 10.0 kilometers
UV 8 out of 16
Clouds (FEW) : 914 m
Scattered Clouds (SCT) : 1524 m
Yesterday's Maximum 13°C
Yesterday's Minimum 5°C approx.
Yesterday's Heating Degree Days 17 approx.
Sunrise5:53 AM JST
Sunset6:19 PM JST
Moon Rise6:41 AM JST
Moon Set7:36 PM JST
Moon PhaseMoon Phase
New Moon
Raw METARMETAR RJOT 290300Z 32006KT 260V360 9999 FEW030 SCT050 13/04 Q1023


Monday
. High: 73° F.
Tuesday
. High: 77° F.
Wednesday
. High: 71° F.
Thursday
. High: 75° F.
Friday
. High: 78° F.
Saturday
. High: 78° F.
Sunday
. High: 75° F.
Monday
. High: 77° F.

Units: English | Metric

Find the Weather for any City, State or Zipcode, or Country:

U.S. State List | Severe Weather | Tropical Storms | Ski Conditions
United States | Canada | Central America | South America | Asia | Europe | Australia | Africa | Islands

Weather Underground

© Copyright 2017
The Weather Company, LLC